createdAt,value
2022-10-20T00:03:57.405Z,6.55
2022-10-20T00:09:00.980Z,6.53
2022-10-20T00:14:03.214Z,3.50
2022-10-20T00:19:04.973Z,3.03
2022-10-20T00:24:06.538Z,5.45
2022-10-20T00:29:08.199Z,3.80
2022-10-20T00:34:10.147Z,6.75
2022-10-20T00:39:11.625Z,4.03
2022-10-20T00:44:49.848Z,6.03
2022-10-20T00:49:51.591Z,5.07
2022-10-20T00:54:53.152Z,3.75
2022-10-20T00:59:54.654Z,3.65
2022-10-20T01:04:56.143Z,5.22
2022-10-20T01:09:57.888Z,3.33
2022-10-20T01:15:14.786Z,4.35
2022-10-20T01:20:38.009Z,3.58
2022-10-20T01:26:18.855Z,3.55
2022-10-20T01:31:38.542Z,6.03
2022-10-20T01:36:47.738Z,3.42
2022-10-20T01:42:04.767Z,3.55
2022-10-20T01:47:07.520Z,4.53
2022-10-20T01:52:11.375Z,4.85
2022-10-20T01:57:28.233Z,4.45
2022-10-20T02:02:49.336Z,3.70
2022-10-20T02:07:50.928Z,4.10
2022-10-20T02:12:56.875Z,4.05
2022-10-20T02:18:04.186Z,4.32
2022-10-20T02:23:06.564Z,4.10
2022-10-20T02:28:10.856Z,4.85
2022-10-20T02:33:12.873Z,5.05
2022-10-20T02:38:14.443Z,4.32
2022-10-20T02:43:16.074Z,4.70
2022-10-20T02:48:17.627Z,4.10
2022-10-20T02:53:19.140Z,3.63
2022-10-20T02:58:20.645Z,3.55
2022-10-20T03:03:22.174Z,3.22
2022-10-20T03:08:23.678Z,5.25
2022-10-20T03:13:25.234Z,3.50
2022-10-20T03:18:26.788Z,5.63
2022-10-20T03:23:28.278Z,4.10
2022-10-20T03:28:29.784Z,3.60
2022-10-20T03:33:31.284Z,3.53
2022-10-20T03:38:32.826Z,3.30
2022-10-20T03:43:34.347Z,4.95
2022-10-20T03:48:36.798Z,4.50
2022-10-20T03:53:38.305Z,3.67
2022-10-20T03:58:39.850Z,3.50
2022-10-20T04:03:41.782Z,3.30
2022-10-20T04:08:43.380Z,6.03
2022-10-20T04:13:44.887Z,4.55
2022-10-20T04:18:46.363Z,4.30
2022-10-20T04:23:48.008Z,4.60
2022-10-20T04:28:49.583Z,4.93
2022-10-20T04:33:51.109Z,3.92
2022-10-20T04:38:52.613Z,8.13
2022-10-20T04:43:54.134Z,4.90
2022-10-20T04:48:55.635Z,4.30
2022-10-20T04:53:57.185Z,4.80
2022-10-20T04:58:59.228Z,5.75
2022-10-20T05:04:00.882Z,5.78
2022-10-20T05:09:04.310Z,7.00
2022-10-20T05:14:05.981Z,5.47
2022-10-20T05:19:07.506Z,5.32
2022-10-20T05:24:16.729Z,6.30
2022-10-20T05:29:21.533Z,6.25
2022-10-20T05:34:23.059Z,6.20
2022-10-20T05:39:24.552Z,5.40
2022-10-20T05:44:26.059Z,6.00
2022-10-20T05:49:27.635Z,7.00
2022-10-20T05:54:29.133Z,5.37
2022-10-20T05:59:32.282Z,8.68
2022-10-20T06:04:33.818Z,10.98
2022-10-20T06:09:36.069Z,6.95
2022-10-20T06:14:37.590Z,8.23
2022-10-20T06:19:39.085Z,5.45
2022-10-20T06:24:40.588Z,4.97
2022-10-20T06:29:42.074Z,4.50
2022-10-20T06:34:43.696Z,4.47
2022-10-20T06:39:45.176Z,6.43
2022-10-20T06:44:46.659Z,4.90
2022-10-20T06:49:48.771Z,6.10
2022-10-20T06:54:50.267Z,5.05
2022-10-20T06:59:51.768Z,5.20
2022-10-20T07:04:53.239Z,6.60
2022-10-20T07:09:54.717Z,5.70
2022-10-20T07:14:56.234Z,4.65
2022-10-20T07:19:57.924Z,4.97
2022-10-20T07:25:02.047Z,3.40
2022-10-20T07:30:04.198Z,6.35
2022-10-20T07:35:06.186Z,5.82
2022-10-20T07:40:08.156Z,4.18
2022-10-20T07:45:09.799Z,3.50
2022-10-20T07:50:12.912Z,4.28
2022-10-20T07:55:36.629Z,3.65
2022-10-20T08:00:35.960Z,5.20
2022-10-20T08:05:37.538Z,5.70
2022-10-20T08:10:39.034Z,3.17
2022-10-20T08:21:09.659Z,5.65
2022-10-20T08:26:12.437Z,3.40
2022-10-20T08:31:14.029Z,3.95
2022-10-20T08:36:15.672Z,4.20
2022-10-20T08:41:21.292Z,3.40
2022-10-20T08:46:30.576Z,3.05
2022-10-20T08:51:34.314Z,3.10
2022-10-20T08:56:35.830Z,5.05
2022-10-20T09:01:37.622Z,6.10
2022-10-20T09:06:41.952Z,3.65
2022-10-20T09:11:44.390Z,5.30
2022-10-20T09:16:59.708Z,5.10
2022-10-20T09:22:06.053Z,5.40
2022-10-20T09:27:23.814Z,3.25
2022-10-20T09:32:50.902Z,3.28
2022-10-20T09:37:52.398Z,4.72
2022-10-20T09:42:56.806Z,4.30
2022-10-20T09:48:18.284Z,6.43
2022-10-20T09:53:22.231Z,5.47
2022-10-20T09:58:29.490Z,3.13
2022-10-20T10:03:45.098Z,3.03
2022-10-20T10:08:47.389Z,2.53
2022-10-20T10:13:51.027Z,3.03
2022-10-20T10:19:01.739Z,3.10
2022-10-20T10:24:04.453Z,3.40
2022-10-20T10:29:06.014Z,3.90
2022-10-20T10:34:13.243Z,2.78
2022-10-20T10:39:15.922Z,5.00
2022-10-20T10:44:43.696Z,3.20
2022-10-20T10:49:54.409Z,3.67
2022-10-20T10:55:30.528Z,3.53
2022-10-20T11:01:07.184Z,3.33
2022-10-20T11:06:20.024Z,3.33
2022-10-20T11:11:30.807Z,4.13
2022-10-20T11:16:51.923Z,2.75
2022-10-20T11:21:59.167Z,2.60
2022-10-20T11:27:04.501Z,4.10
2022-10-20T11:32:16.431Z,3.22
2022-10-20T11:37:17.810Z,3.00
2022-10-20T11:42:32.446Z,3.83
2022-10-20T11:47:39.179Z,4.78
2022-10-20T11:53:13.458Z,4.47
2022-10-20T11:58:32.586Z,6.20
2022-10-20T12:03:41.712Z,4.15
2022-10-20T12:08:52.599Z,4.13
2022-10-20T12:14:07.184Z,4.40
2022-10-20T12:19:21.779Z,3.63
2022-10-20T12:24:37.858Z,3.63
2022-10-20T12:29:42.054Z,5.95
2022-10-20T12:34:43.609Z,3.67
2022-10-20T12:39:46.013Z,3.50
2022-10-20T12:44:47.714Z,4.82
2022-10-20T12:49:56.700Z,5.50
2022-10-20T12:55:19.399Z,4.82
2022-10-20T13:00:23.613Z,4.63
2022-10-20T13:05:27.516Z,5.78
2022-10-20T13:10:31.874Z,5.18
2022-10-20T13:15:37.007Z,5.07
2022-10-20T13:20:59.473Z,5.20
2022-10-20T13:26:30.376Z,4.47
2022-10-20T13:31:34.309Z,9.30
2022-10-20T13:36:57.038Z,5.68
2022-10-20T13:42:17.087Z,5.22
2022-10-20T13:47:34.942Z,6.28
2022-10-20T13:52:41.286Z,6.65
2022-10-20T13:57:55.540Z,6.63
2022-10-20T14:03:14.478Z,6.72
2022-10-20T14:08:21.196Z,7.07
2022-10-20T14:13:27.359Z,10.10
2022-10-20T14:18:32.613Z,7.55
2022-10-20T14:23:38.601Z,9.10
2022-10-20T14:28:42.005Z,8.10
2022-10-20T14:33:45.180Z,7.18
2022-10-20T14:38:48.650Z,8.73
2022-10-20T14:43:53.081Z,8.88
2022-10-20T14:48:54.634Z,9.23
2022-10-20T14:54:28.111Z,8.18
2022-10-20T14:59:32.921Z,9.27
2022-10-20T15:04:36.393Z,8.52
2022-10-20T15:09:41.442Z,9.98
2022-10-20T15:14:46.790Z,8.70
2022-10-20T15:19:48.324Z,6.85
2022-10-20T15:24:49.961Z,7.50
2022-10-20T15:29:51.791Z,8.68
2022-10-20T15:34:53.267Z,15.35
2022-10-20T15:39:54.771Z,6.55
2022-10-20T15:44:56.242Z,6.80
2022-10-20T15:49:57.912Z,7.40
2022-10-20T15:54:59.449Z,8.77
2022-10-20T16:00:00.993Z,8.45
2022-10-20T16:05:02.562Z,10.07
2022-10-20T16:10:06.095Z,8.50
2022-10-20T16:15:08.886Z,6.93
2022-10-20T16:20:10.831Z,7.28
2022-10-20T16:25:12.389Z,6.38
2022-10-20T16:30:14.063Z,5.97
2022-10-20T16:35:15.659Z,6.65
2022-10-20T16:40:17.288Z,7.05
2022-10-20T16:45:18.830Z,7.28
2022-10-20T16:50:20.413Z,7.72
2022-10-20T16:55:21.958Z,8.15
2022-10-20T17:00:23.464Z,6.47
2022-10-20T17:05:26.584Z,6.28
2022-10-20T17:10:28.378Z,6.57
2022-10-20T17:15:29.932Z,7.22
2022-10-20T17:20:31.415Z,6.20
2022-10-20T17:25:32.927Z,7.25
2022-10-20T17:30:34.477Z,7.07
2022-10-20T17:35:36.105Z,6.03
2022-10-20T17:40:38.263Z,5.25
2022-10-20T17:45:39.788Z,8.80
2022-10-20T17:50:41.287Z,5.40
2022-10-20T17:55:42.797Z,7.25
2022-10-20T18:00:56.216Z,5.40
2022-10-20T18:05:58.501Z,5.30
2022-10-20T18:10:59.999Z,6.22
2022-10-20T18:16:04.927Z,6.15
2022-10-20T18:21:08.425Z,6.97
2022-10-20T18:26:12.767Z,8.60
2022-10-20T18:31:21.035Z,4.57
2022-10-20T18:36:23.135Z,5.78
2022-10-20T18:41:26.792Z,5.90
2022-10-20T18:46:31.551Z,4.38
2022-10-20T18:51:33.560Z,5.57
2022-10-20T18:56:35.762Z,8.50
2022-10-20T19:01:38.698Z,4.28
2022-10-20T19:06:43.070Z,4.53
2022-10-20T19:11:45.686Z,8.32
2022-10-20T19:16:48.636Z,6.75
2022-10-20T19:21:50.131Z,4.55
2022-10-20T19:27:24.540Z,4.03
2022-10-20T19:32:17.297Z,3.70
2022-10-20T19:37:18.810Z,5.47
2022-10-20T19:42:20.352Z,5.05
2022-10-20T19:47:21.986Z,5.10
2022-10-20T19:52:23.497Z,3.95
2022-10-20T19:57:25.137Z,6.10
2022-10-20T20:02:26.660Z,5.43
2022-10-20T20:07:28.185Z,5.10
2022-10-20T20:12:29.773Z,6.53
2022-10-20T20:17:31.264Z,4.47
2022-10-20T20:22:32.751Z,6.25
2022-10-20T20:27:34.315Z,9.80
2022-10-20T20:32:37.129Z,5.07
2022-10-20T20:37:39.119Z,5.05
2022-10-20T20:42:40.886Z,6.97
2022-10-20T20:47:43.174Z,6.82
2022-10-20T20:52:44.717Z,5.22
2022-10-20T20:57:46.217Z,7.25
2022-10-20T21:02:47.755Z,6.13
2022-10-20T21:07:49.275Z,6.15
2022-10-20T21:12:50.752Z,7.75
2022-10-20T21:17:52.268Z,5.40
2022-10-20T21:22:53.827Z,5.47
2022-10-20T21:27:55.412Z,7.95
2022-10-20T21:32:56.960Z,6.65
2022-10-20T21:37:58.448Z,6.05
2022-10-20T21:42:59.969Z,6.90
2022-10-20T21:48:01.563Z,8.38
2022-10-20T21:53:03.069Z,6.35
2022-10-20T21:58:04.590Z,6.72
2022-10-20T22:03:06.091Z,6.70
2022-10-20T22:08:07.635Z,6.45
2022-10-20T22:13:09.325Z,7.50
2022-10-20T22:18:10.818Z,5.80
2022-10-20T22:23:12.445Z,6.78
2022-10-20T22:28:13.947Z,6.78
2022-10-20T22:33:15.467Z,6.88
2022-10-20T22:38:17.042Z,7.85
2022-10-20T22:43:18.526Z,6.50
2022-10-20T22:48:20.173Z,6.47
2022-10-20T22:53:21.787Z,6.95
2022-10-20T22:58:23.400Z,6.20
2022-10-20T23:03:25.002Z,6.63
2022-10-20T23:08:29.415Z,8.75
2022-10-20T23:13:33.522Z,7.15
2022-10-20T23:18:35.054Z,7.22
2022-10-20T23:23:37.410Z,9.05
2022-10-20T23:28:38.984Z,6.75
2022-10-20T23:33:41.809Z,7.13
2022-10-20T23:38:43.636Z,7.28
2022-10-20T23:43:45.200Z,7.18
2022-10-20T23:48:46.808Z,6.82
2022-10-20T23:53:48.307Z,8.90
2022-10-20T23:58:49.893Z,8.75
